createdAt,value
2023-04-24T00:01:13.998Z,8.98
2023-04-24T00:03:42.490Z,9.05
2023-04-24T00:06:10.793Z,7.50
2023-04-24T00:08:39.067Z,10.55
2023-04-24T00:11:07.348Z,9.88
2023-04-24T00:13:35.781Z,8.27
2023-04-24T00:16:04.160Z,6.90
2023-04-24T00:18:32.526Z,7.45
2023-04-24T00:21:00.925Z,11.13
2023-04-24T00:23:29.326Z,13.23
2023-04-24T00:25:57.576Z,8.32
2023-04-24T00:28:25.844Z,9.00
2023-04-24T00:30:54.188Z,14.32
2023-04-24T00:33:22.428Z,7.75
2023-04-24T00:35:50.686Z,7.30
2023-04-24T00:38:19.205Z,7.00
2023-04-24T00:40:48.814Z,10.70
2023-04-24T00:43:17.696Z,7.43
2023-04-24T00:45:46.122Z,7.63
2023-04-24T00:48:15.822Z,8.32
2023-04-24T00:50:44.651Z,7.25
2023-04-24T00:53:13.156Z,8.05
2023-04-24T00:55:41.922Z,9.90
2023-04-24T00:58:10.391Z,7.60
2023-04-24T01:00:39.783Z,8.80
2023-04-24T01:03:09.204Z,9.82
2023-04-24T01:05:37.733Z,7.97
2023-04-24T01:08:06.130Z,7.65
2023-04-24T01:10:35.856Z,14.50
2023-04-24T01:13:04.084Z,7.18
2023-04-24T01:15:32.365Z,7.43
2023-04-24T01:18:00.742Z,9.93
2023-04-24T01:20:29.838Z,8.70
2023-04-24T01:22:58.796Z,6.93
2023-04-24T01:25:28.670Z,6.68
2023-04-24T01:27:59.594Z,7.70
2023-04-24T01:30:29.030Z,8.25
2023-04-24T01:33:00.901Z,9.88
2023-04-24T01:35:29.446Z,12.07
2023-04-24T01:37:57.724Z,8.18
2023-04-24T01:40:26.615Z,10.43
2023-04-24T01:42:55.290Z,11.55
2023-04-24T01:45:24.183Z,11.43
2023-04-24T01:47:52.876Z,8.35
2023-04-24T01:50:21.254Z,8.68
2023-04-24T01:52:49.477Z,10.27
2023-04-24T01:55:17.756Z,11.05
2023-04-24T01:57:47.308Z,9.25
2023-04-24T02:00:15.826Z,14.27
2023-04-24T02:02:47.299Z,13.25
2023-04-24T02:05:16.502Z,14.73
2023-04-24T02:07:44.816Z,16.33
2023-04-24T02:10:13.308Z,18.08
2023-04-24T02:12:44.451Z,16.10
2023-04-24T02:15:13.347Z,18.65
2023-04-24T02:17:41.717Z,15.85
2023-04-24T02:20:10.219Z,19.02
2023-04-24T02:22:40.358Z,19.95
2023-04-24T02:25:09.408Z,20.13
2023-04-24T02:27:37.650Z,18.63
2023-04-24T02:30:08.658Z,21.02
2023-04-24T02:32:37.307Z,20.23
2023-04-24T02:35:05.994Z,22.23
2023-04-24T02:37:34.485Z,20.42
2023-04-24T02:40:02.893Z,16.35
2023-04-24T02:42:31.180Z,21.73
2023-04-24T02:44:59.640Z,19.50
2023-04-24T02:47:27.955Z,18.92
2023-04-24T02:49:56.392Z,18.50
2023-04-24T02:52:24.827Z,29.13
2023-04-24T02:54:54.764Z,23.95
2023-04-24T02:57:23.087Z,23.38
2023-04-24T02:59:51.389Z,20.90
2023-04-24T03:02:19.917Z,29.73
2023-04-24T03:04:51.238Z,20.80
2023-04-24T03:07:21.774Z,26.08
2023-04-24T03:09:50.163Z,23.52
2023-04-24T03:12:19.040Z,18.20
2023-04-24T03:14:47.380Z,22.42
2023-04-24T03:17:15.700Z,20.13
2023-04-24T03:19:44.197Z,24.90
2023-04-24T03:22:13.538Z,22.45
2023-04-24T03:24:42.836Z,24.85
2023-04-24T03:27:11.541Z,20.70
2023-04-24T03:30:03.036Z,22.45
2023-04-24T03:32:43.176Z,23.90
2023-04-24T03:35:14.197Z,22.08
2023-04-24T03:37:42.614Z,25.38
2023-04-24T03:40:40.031Z,21.90
2023-04-24T03:43:19.465Z,31.35
2023-04-24T03:45:49.304Z,24.48
2023-04-24T03:48:19.220Z,33.40
2023-04-24T03:50:47.653Z,25.42
2023-04-24T03:53:16.719Z,24.83
2023-04-24T03:55:45.687Z,24.02
2023-04-24T03:58:15.609Z,23.63
2023-04-24T04:00:45.597Z,31.42
2023-04-24T04:03:44.205Z,28.85
2023-04-24T04:06:14.093Z,27.48
2023-04-24T04:08:43.336Z,27.33
2023-04-24T04:11:11.632Z,23.73
2023-04-24T04:13:40.034Z,23.77
2023-04-24T04:16:09.618Z,22.98
2023-04-24T04:18:38.719Z,26.70
2023-04-24T04:21:09.017Z,25.75
2023-04-24T04:23:37.593Z,25.85
2023-04-24T04:26:20.163Z,30.75
2023-04-24T04:28:59.848Z,25.73
2023-04-24T04:31:28.273Z,28.02
2023-04-24T04:33:58.350Z,21.80
2023-04-24T04:36:27.009Z,28.67
2023-04-24T04:39:03.833Z,29.33
2023-04-24T04:41:49.992Z,25.00
2023-04-24T04:44:20.351Z,25.70
2023-04-24T04:46:49.098Z,23.70
2023-04-24T04:49:33.133Z,25.25
2023-04-24T04:52:02.181Z,26.85
2023-04-24T04:54:30.997Z,23.92
2023-04-24T04:56:59.940Z,21.15
2023-04-24T04:59:28.865Z,26.30
2023-04-24T05:02:04.291Z,29.75
2023-04-24T05:04:33.241Z,33.47
2023-04-24T05:07:01.821Z,29.05
2023-04-24T05:09:33.048Z,22.52
2023-04-24T05:14:39.488Z,13.93
2023-04-24T05:17:08.378Z,12.57
2023-04-24T05:19:39.036Z,13.07
2023-04-24T05:22:08.818Z,9.88
2023-04-24T05:24:43.330Z,5.53
2023-04-24T05:27:31.593Z,3.67
2023-04-24T05:30:00.561Z,4.13
2023-04-24T05:32:28.820Z,5.22
2023-04-24T05:34:57.518Z,3.85
2023-04-24T05:37:26.022Z,2.72
2023-04-24T05:39:54.423Z,4.50
2023-04-24T05:42:22.899Z,1.73
2023-04-24T05:44:53.682Z,2.60
2023-04-24T05:47:23.149Z,2.03
2023-04-24T05:49:52.979Z,2.65
2023-04-24T05:52:21.598Z,2.97
2023-04-24T05:54:51.204Z,1.50
2023-04-24T05:57:25.882Z,1.83
2023-04-24T06:00:02.216Z,2.65
2023-04-24T06:02:33.769Z,2.00
2023-04-24T06:05:02.829Z,2.72
2023-04-24T06:07:31.733Z,4.22
2023-04-24T06:10:01.883Z,3.08
2023-04-24T06:12:32.234Z,3.63
2023-04-24T06:15:06.448Z,3.65
2023-04-24T06:17:57.460Z,3.85
2023-04-24T06:20:26.008Z,3.25
2023-04-24T06:22:54.940Z,3.42
2023-04-24T06:25:23.447Z,2.42
2023-04-24T06:27:52.848Z,2.83
2023-04-24T06:30:21.307Z,2.78
2023-04-24T06:32:49.644Z,2.33
2023-04-24T06:35:17.944Z,3.53
2023-04-24T06:37:47.475Z,2.90
2023-04-24T06:40:15.997Z,5.00
2023-04-24T06:42:44.211Z,1.35
2023-04-24T06:45:12.597Z,2.63
2023-04-24T06:47:40.857Z,1.35
2023-04-24T06:50:09.579Z,2.35
2023-04-24T06:52:37.840Z,3.45
2023-04-24T06:55:06.881Z,1.20
2023-04-24T06:57:35.342Z,3.17
2023-04-24T07:00:04.520Z,2.35
2023-04-24T07:02:33.541Z,6.75
2023-04-24T07:05:02.383Z,4.05
2023-04-24T07:07:31.168Z,8.15
2023-04-24T07:09:59.446Z,4.45
2023-04-24T07:12:27.658Z,4.65
2023-04-24T07:14:56.523Z,3.05
2023-04-24T07:17:24.798Z,2.38
2023-04-24T07:19:53.054Z,2.13
2023-04-24T07:22:21.332Z,2.80
2023-04-24T07:24:49.501Z,3.03
2023-04-24T07:27:17.714Z,3.25
2023-04-24T07:29:46.452Z,0.75
2023-04-24T07:32:14.948Z,1.20
2023-04-24T07:34:43.224Z,0.45
2023-04-24T07:37:11.591Z,1.20
2023-04-24T07:39:39.758Z,1.20
2023-04-24T07:42:08.042Z,0.68
2023-04-24T07:44:37.102Z,0.75
2023-04-24T07:47:05.524Z,1.23
2023-04-24T07:49:35.841Z,1.38
2023-04-24T07:52:04.114Z,1.40
2023-04-24T07:54:32.415Z,0.68
2023-04-24T07:57:01.906Z,2.75
2023-04-24T07:59:30.262Z,1.38
2023-04-24T08:01:58.841Z,7.93
2023-04-24T08:04:27.311Z,2.78
2023-04-24T08:06:55.754Z,2.92
2023-04-24T08:09:24.989Z,1.17
2023-04-24T08:11:55.049Z,14.40
2023-04-24T08:14:23.330Z,13.82
2023-04-24T08:16:51.604Z,5.22
2023-04-24T08:19:19.933Z,1.55
2023-04-24T08:21:48.193Z,1.42
2023-04-24T08:24:16.439Z,0.60
2023-04-24T08:26:44.728Z,1.33
2023-04-24T08:29:12.987Z,0.57
2023-04-24T08:31:41.324Z,3.00
2023-04-24T08:34:10.583Z,1.35
2023-04-24T08:36:46.944Z,5.53
2023-04-24T08:39:16.978Z,0.85
2023-04-24T08:41:46.582Z,0.90
2023-04-24T08:44:17.146Z,1.83
2023-04-24T08:46:49.035Z,0.75
2023-04-24T08:49:18.672Z,1.05
2023-04-24T08:51:48.743Z,0.60
2023-04-24T08:54:17.533Z,2.75
2023-04-24T08:56:48.749Z,16.85
2023-04-24T08:59:18.011Z,10.02
2023-04-24T09:01:49.068Z,4.85
2023-04-24T09:04:21.232Z,0.88
2023-04-24T09:06:51.106Z,0.93
2023-04-24T09:09:20.003Z,0.80
2023-04-24T09:11:49.925Z,2.50
2023-04-24T09:14:19.540Z,5.70
2023-04-24T09:16:48.904Z,1.10
2023-04-24T09:19:17.389Z,1.00
2023-04-24T09:21:47.722Z,1.83
2023-04-24T09:24:23.554Z,1.30
2023-04-24T09:27:05.023Z,2.85
2023-04-24T09:29:34.114Z,1.80
2023-04-24T09:32:23.577Z,1.75
2023-04-24T09:35:05.986Z,1.35
2023-04-24T09:37:42.583Z,1.85
2023-04-24T09:40:14.914Z,1.45
2023-04-24T09:43:03.750Z,3.17
2023-04-24T09:45:40.247Z,1.00
2023-04-24T09:48:12.343Z,4.25
2023-04-24T09:50:46.756Z,2.97
2023-04-24T09:53:15.051Z,2.60
2023-04-24T09:55:49.600Z,0.85
2023-04-24T09:58:17.835Z,2.17
2023-04-24T10:00:47.668Z,1.70
2023-04-24T10:03:16.175Z,1.30
2023-04-24T10:05:47.072Z,2.17
2023-04-24T10:08:16.004Z,1.70
2023-04-24T10:10:46.400Z,1.27
2023-04-24T10:13:19.089Z,1.25
2023-04-24T10:15:49.177Z,5.10
2023-04-24T10:18:18.128Z,1.70
2023-04-24T10:20:46.832Z,1.90
2023-04-24T10:23:15.716Z,1.98
2023-04-24T10:25:44.348Z,1.60
2023-04-24T10:28:13.435Z,1.63
2023-04-24T10:30:44.749Z,1.50
2023-04-24T10:33:14.264Z,7.50
2023-04-24T10:35:50.134Z,1.73
2023-04-24T10:38:26.421Z,1.50
2023-04-24T10:41:09.142Z,1.13
2023-04-24T10:43:37.618Z,2.37
2023-04-24T10:46:07.770Z,1.38
2023-04-24T10:48:36.268Z,2.80
2023-04-24T10:51:04.699Z,2.90
2023-04-24T10:53:35.974Z,1.20
2023-04-24T10:56:10.591Z,1.52
2023-04-24T10:58:47.289Z,1.15
2023-04-24T11:01:34.401Z,1.85
2023-04-24T11:04:04.849Z,1.13
2023-04-24T11:06:38.093Z,2.42
2023-04-24T11:09:08.780Z,0.90
2023-04-24T11:11:38.606Z,2.40
2023-04-24T11:14:08.906Z,2.78
2023-04-24T11:16:58.807Z,4.15
2023-04-24T11:19:29.630Z,5.13
2023-04-24T11:22:06.198Z,2.55
2023-04-24T11:24:41.687Z,1.58
2023-04-24T11:27:23.063Z,2.70
2023-04-24T11:29:58.052Z,1.20
2023-04-24T11:32:32.143Z,1.23
2023-04-24T11:35:09.661Z,1.08
2023-04-24T11:37:39.985Z,0.73
2023-04-24T11:40:13.639Z,0.57
2023-04-24T11:42:44.873Z,4.05
2023-04-24T11:45:14.947Z,0.90
2023-04-24T11:47:44.248Z,0.90
2023-04-24T11:50:20.893Z,1.00
2023-04-24T11:52:50.763Z,0.68
2023-04-24T11:55:19.783Z,0.77
2023-04-24T11:57:49.801Z,3.05
2023-04-24T12:00:20.567Z,0.45
2023-04-24T12:02:50.354Z,0.40
2023-04-24T12:05:27.151Z,0.30
2023-04-24T12:07:55.841Z,0.68
2023-04-24T12:10:30.940Z,1.05
2023-04-24T12:13:00.989Z,1.20
2023-04-24T12:15:29.693Z,1.08
2023-04-24T12:17:58.781Z,0.52
2023-04-24T12:20:32.229Z,1.40
2023-04-24T12:25:32.435Z,0.60
2023-04-24T12:28:06.810Z,0.55
2023-04-24T12:30:40.512Z,0.57
2023-04-24T12:33:09.021Z,0.45
2023-04-24T12:35:37.411Z,0.68
2023-04-24T12:38:14.155Z,1.40
2023-04-24T12:40:44.108Z,1.00
2023-04-24T12:43:21.032Z,0.63
2023-04-24T12:45:49.914Z,2.88
2023-04-24T12:48:18.180Z,1.15
2023-04-24T12:50:47.515Z,4.45
2023-04-24T12:53:16.956Z,1.42
2023-04-24T12:55:46.097Z,1.15
2023-04-24T12:58:14.886Z,3.42
2023-04-24T13:00:44.572Z,1.10
2023-04-24T13:03:14.048Z,1.90
2023-04-24T13:05:45.100Z,0.80
2023-04-24T13:08:13.998Z,1.92
2023-04-24T13:10:42.412Z,3.25
2023-04-24T13:13:11.016Z,2.40
2023-04-24T13:15:39.208Z,2.03
2023-04-24T13:18:07.468Z,1.55
2023-04-24T13:20:36.687Z,1.20
2023-04-24T13:23:05.279Z,1.08
2023-04-24T13:25:38.512Z,1.60
2023-04-24T13:28:07.264Z,1.77
2023-04-24T13:30:35.660Z,2.20
2023-04-24T13:33:04.269Z,3.40
2023-04-24T13:35:32.597Z,5.07
2023-04-24T13:38:02.263Z,3.08
2023-04-24T13:40:30.566Z,4.45
2023-04-24T13:42:58.909Z,2.00
2023-04-24T13:45:27.291Z,2.38
2023-04-24T13:47:55.748Z,2.60
2023-04-24T13:50:24.132Z,2.08
2023-04-24T13:52:52.415Z,1.75
2023-04-24T13:55:21.081Z,2.15
2023-04-24T13:57:49.903Z,1.77
2023-04-24T14:00:18.958Z,1.10
2023-04-24T14:02:47.396Z,3.00
2023-04-24T14:05:16.339Z,1.58
2023-04-24T14:07:44.553Z,3.72
2023-04-24T14:10:12.962Z,3.90
2023-04-24T14:12:41.453Z,3.20
2023-04-24T14:15:11.043Z,10.98
2023-04-24T14:17:39.348Z,8.13
2023-04-24T14:20:08.352Z,4.90
2023-04-24T14:22:36.608Z,9.77
2023-04-24T14:25:06.271Z,2.03
2023-04-24T14:27:35.785Z,3.55
2023-04-24T14:30:04.682Z,23.63
2023-04-24T14:32:33.349Z,14.07
2023-04-24T14:35:01.597Z,10.48
2023-04-24T14:37:29.866Z,2.65
2023-04-24T14:40:11.821Z,5.50
2023-04-24T14:42:46.707Z,2.30
2023-04-24T14:45:15.680Z,5.07
2023-04-24T14:47:44.081Z,5.05
2023-04-24T14:50:13.619Z,4.70
2023-04-24T14:52:41.933Z,6.05
2023-04-24T14:55:10.533Z,4.88
2023-04-24T14:57:38.862Z,11.95
2023-04-24T15:00:12.738Z,4.20
2023-04-24T15:02:43.107Z,4.03
2023-04-24T15:05:12.399Z,6.38
2023-04-24T15:07:42.727Z,4.85
2023-04-24T15:10:11.497Z,3.80
2023-04-24T15:12:39.957Z,5.10
2023-04-24T15:15:09.037Z,2.58
2023-04-24T15:17:37.369Z,4.55
2023-04-24T15:20:07.413Z,3.90
2023-04-24T15:22:35.956Z,5.90
2023-04-24T15:25:04.638Z,9.40
2023-04-24T15:27:46.161Z,2.78
2023-04-24T15:30:15.076Z,4.72
2023-04-24T15:32:43.346Z,2.58
2023-04-24T15:35:11.941Z,2.63
2023-04-24T15:37:40.612Z,3.25
2023-04-24T15:40:09.620Z,4.13
2023-04-24T15:42:37.975Z,5.78
2023-04-24T15:45:09.566Z,6.18
2023-04-24T15:47:37.912Z,3.53
2023-04-24T15:50:10.203Z,2.78
2023-04-24T15:52:42.712Z,9.40
2023-04-24T15:55:11.413Z,3.60
2023-04-24T15:57:41.241Z,2.95
2023-04-24T16:00:11.164Z,3.70
2023-04-24T16:02:42.764Z,2.83
2023-04-24T16:05:11.841Z,1.25
2023-04-24T16:07:43.265Z,1.63
2023-04-24T16:10:12.012Z,1.25
2023-04-24T16:12:40.882Z,1.70
2023-04-24T16:15:11.860Z,1.85
2023-04-24T16:17:40.216Z,1.98
2023-04-24T16:20:11.772Z,2.08
2023-04-24T16:22:40.526Z,1.85
2023-04-24T16:25:12.320Z,1.88
2023-04-24T16:27:40.684Z,12.57
2023-04-24T16:30:12.586Z,9.75
2023-04-24T16:32:40.967Z,5.75
2023-04-24T16:35:09.763Z,6.63
2023-04-24T16:37:38.272Z,7.07
2023-04-24T16:40:10.708Z,3.47
2023-04-24T16:42:39.753Z,4.63
2023-04-24T16:45:08.709Z,2.78
2023-04-24T16:47:37.304Z,2.63
2023-04-24T16:50:06.556Z,2.28
2023-04-24T16:52:35.102Z,2.03
2023-04-24T16:55:03.460Z,2.25
2023-04-24T16:57:31.844Z,3.70
2023-04-24T17:00:00.042Z,3.17
2023-04-24T17:02:29.104Z,3.47
2023-04-24T17:04:57.644Z,2.70
2023-04-24T17:07:26.049Z,6.03
2023-04-24T17:09:54.714Z,6.25
2023-04-24T17:12:22.988Z,5.30
2023-04-24T17:14:51.448Z,6.00
2023-04-24T17:17:23.100Z,9.20
2023-04-24T17:19:51.402Z,6.82
2023-04-24T17:22:19.648Z,7.43
2023-04-24T17:24:47.838Z,6.38
2023-04-24T17:27:16.513Z,7.57
2023-04-24T17:29:44.719Z,8.15
2023-04-24T17:32:13.205Z,5.38
2023-04-24T17:34:41.556Z,5.00
2023-04-24T17:37:09.937Z,4.60
2023-04-24T17:39:38.702Z,4.90
2023-04-24T17:42:07.076Z,6.60
2023-04-24T17:44:35.892Z,7.72
2023-04-24T17:47:04.933Z,4.70
2023-04-24T17:49:33.488Z,7.95
2023-04-24T17:52:01.652Z,8.15
2023-04-24T17:54:29.927Z,4.05
2023-04-24T17:56:58.400Z,6.05
2023-04-24T17:59:26.780Z,5.30
2023-04-24T18:01:55.248Z,9.57
2023-04-24T18:04:23.679Z,5.35
2023-04-24T18:06:52.065Z,6.88
2023-04-24T18:09:21.192Z,5.53
2023-04-24T18:11:50.221Z,5.82
2023-04-24T18:14:18.490Z,6.28
2023-04-24T18:16:46.728Z,6.13
2023-04-24T18:19:14.923Z,5.72
2023-04-24T18:21:43.254Z,6.15
2023-04-24T18:24:11.726Z,5.45
2023-04-24T18:26:39.932Z,5.30
2023-04-24T18:29:08.176Z,3.92
2023-04-24T18:31:36.514Z,4.82
2023-04-24T18:34:04.750Z,3.95
2023-04-24T18:36:33.242Z,4.93
2023-04-24T18:39:01.447Z,4.95
2023-04-24T18:41:29.760Z,4.72
2023-04-24T18:43:59.222Z,4.57
2023-04-24T18:46:27.533Z,3.92
2023-04-24T18:48:56.420Z,4.50
2023-04-24T18:51:24.828Z,4.63
2023-04-24T18:53:53.177Z,6.65
2023-04-24T18:56:21.426Z,4.57
2023-04-24T18:58:50.438Z,4.40
2023-04-24T19:01:19.174Z,3.83
2023-04-24T19:03:47.719Z,4.15
2023-04-24T19:06:16.180Z,4.50
2023-04-24T19:08:44.982Z,3.45
2023-04-24T19:11:13.573Z,4.60
2023-04-24T19:13:42.046Z,4.13
2023-04-24T19:16:10.363Z,3.33
2023-04-24T19:18:38.701Z,2.92
2023-04-24T19:21:07.151Z,2.78
2023-04-24T19:23:39.577Z,1.55
2023-04-24T19:26:08.549Z,2.53
2023-04-24T19:28:38.609Z,1.90
2023-04-24T19:31:07.459Z,2.17
2023-04-24T19:33:35.814Z,3.97
2023-04-24T19:36:04.289Z,3.40
2023-04-24T19:38:32.744Z,3.13
2023-04-24T19:41:00.961Z,4.35
2023-04-24T19:43:29.199Z,6.90
2023-04-24T19:45:58.070Z,4.60
2023-04-24T19:48:31.027Z,2.35
2023-04-24T19:51:00.517Z,3.30
2023-04-24T19:53:29.397Z,3.60
2023-04-24T19:55:58.259Z,4.03
2023-04-24T19:58:26.604Z,2.95
2023-04-24T20:00:54.877Z,2.70
2023-04-24T20:03:32.729Z,2.47
2023-04-24T20:06:02.127Z,2.75
2023-04-24T20:08:30.549Z,7.03
2023-04-24T20:10:58.948Z,1.65
2023-04-24T20:13:31.929Z,1.58
2023-04-24T20:16:00.595Z,3.90
2023-04-24T20:18:28.870Z,1.80
2023-04-24T20:20:59.873Z,3.30
2023-04-24T20:23:28.409Z,3.60
2023-04-24T20:25:59.710Z,1.88
2023-04-24T20:28:31.452Z,5.45
2023-04-24T20:31:00.006Z,2.40
2023-04-24T20:33:30.338Z,2.80
2023-04-24T20:36:01.644Z,2.40
2023-04-24T20:38:30.945Z,3.25
2023-04-24T20:41:00.222Z,3.20
2023-04-24T20:43:29.345Z,1.30
2023-04-24T20:45:58.413Z,1.73
2023-04-24T20:48:27.356Z,1.80
2023-04-24T20:50:56.015Z,1.65
2023-04-24T20:53:24.544Z,2.47
2023-04-24T20:55:52.867Z,3.47
2023-04-24T20:58:22.987Z,1.27
2023-04-24T21:00:52.337Z,1.40
2023-04-24T21:03:21.300Z,1.17
2023-04-24T21:05:49.790Z,2.22
2023-04-24T21:08:18.232Z,1.08
2023-04-24T21:10:46.597Z,2.05
2023-04-24T21:13:14.787Z,1.10
2023-04-24T21:15:43.423Z,2.67
2023-04-24T21:18:11.897Z,3.60
2023-04-24T21:20:40.459Z,2.05
2023-04-24T21:23:08.780Z,1.42
2023-04-24T21:25:37.657Z,2.50
2023-04-24T21:28:06.104Z,6.43
2023-04-24T21:30:34.395Z,4.25
2023-04-24T21:33:02.673Z,2.13
2023-04-24T21:35:31.258Z,1.00
2023-04-24T21:37:59.465Z,1.30
2023-04-24T21:40:27.714Z,1.02
2023-04-24T21:42:56.045Z,1.17
2023-04-24T21:45:25.051Z,2.45
2023-04-24T21:47:53.340Z,1.02
2023-04-24T21:50:21.674Z,0.80
2023-04-24T21:52:49.902Z,1.38
2023-04-24T21:55:18.209Z,2.17
2023-04-24T21:57:46.472Z,3.35
2023-04-24T22:00:15.230Z,1.50
2023-04-24T22:02:43.747Z,2.13
2023-04-24T22:05:18.675Z,3.67
2023-04-24T22:07:50.540Z,1.52
2023-04-24T22:10:19.200Z,4.82
2023-04-24T22:12:47.479Z,1.88
2023-04-24T22:15:15.898Z,2.33
2023-04-24T22:17:44.108Z,3.17
2023-04-24T22:20:13.877Z,1.88
2023-04-24T22:22:42.212Z,0.82
2023-04-24T22:25:10.865Z,2.22
2023-04-24T22:27:39.114Z,1.98
2023-04-24T22:30:09.263Z,1.48
2023-04-24T22:32:37.909Z,5.63
2023-04-24T22:35:06.673Z,0.70
2023-04-24T22:37:35.044Z,1.45
2023-04-24T22:40:03.630Z,5.00
2023-04-24T22:42:31.909Z,6.55
2023-04-24T22:45:00.550Z,4.97
2023-04-24T22:47:29.118Z,4.88
2023-04-24T22:49:58.500Z,6.03
2023-04-24T22:52:28.861Z,4.43
2023-04-24T22:54:57.125Z,4.10
2023-04-24T22:57:25.574Z,4.60
2023-04-24T22:59:54.754Z,3.47
2023-04-24T23:02:23.945Z,4.40
2023-04-24T23:04:54.228Z,3.75
2023-04-24T23:07:22.542Z,5.03
2023-04-24T23:09:50.742Z,5.35
2023-04-24T23:12:19.056Z,5.65
2023-04-24T23:14:47.209Z,4.20
2023-04-24T23:17:15.513Z,2.47
2023-04-24T23:19:44.089Z,5.00
2023-04-24T23:22:12.399Z,2.53
2023-04-24T23:24:40.662Z,8.52
2023-04-24T23:27:08.876Z,2.80
2023-04-24T23:29:37.122Z,2.42
2023-04-24T23:32:05.761Z,1.67
2023-04-24T23:34:34.071Z,3.10
2023-04-24T23:37:02.347Z,4.35
2023-04-24T23:39:30.592Z,2.17
2023-04-24T23:41:59.810Z,3.83
2023-04-24T23:44:28.805Z,2.28
2023-04-24T23:46:57.512Z,3.03
2023-04-24T23:49:26.224Z,2.78
2023-04-24T23:51:54.647Z,2.05
2023-04-24T23:54:22.880Z,2.78
2023-04-24T23:56:51.339Z,2.40
2023-04-24T23:59:22.376Z,3.90
